createdAt,value
2019-04-28T00:01:24.459Z,7.70
2019-04-28T00:03:53.817Z,7.70
2019-04-28T00:06:24.880Z,7.80
2019-04-28T00:08:54.330Z,7.80
2019-04-28T00:11:23.687Z,7.90
2019-04-28T00:13:53.622Z,8.00
2019-04-28T00:16:23.461Z,8.00
2019-04-28T00:18:53.032Z,8.00
2019-04-28T00:21:24.085Z,8.00
2019-04-28T00:23:58.047Z,8.00
2019-04-28T00:26:37.483Z,7.90
2019-04-28T00:29:06.973Z,7.90
2019-04-28T00:31:36.383Z,7.80
2019-04-28T00:34:06.195Z,7.80
2019-04-28T00:36:35.614Z,7.70
2019-04-28T00:39:06.341Z,7.70
2019-04-28T00:41:35.732Z,7.70
2019-04-28T00:44:05.247Z,7.60
2019-04-28T00:46:36.512Z,7.60
2019-04-28T00:49:05.885Z,7.60
2019-04-28T00:51:35.336Z,7.50
2019-04-28T00:54:04.912Z,7.50
2019-04-28T00:56:35.883Z,7.50
2019-04-28T00:59:05.275Z,7.50
2019-04-28T01:01:42.630Z,7.50
2019-04-28T01:04:13.029Z,7.40
2019-04-28T01:06:43.002Z,7.40
2019-04-28T01:09:12.880Z,7.30
2019-04-28T01:11:42.335Z,7.20
2019-04-28T01:14:11.782Z,7.10
2019-04-28T01:16:47.156Z,7.10
2019-04-28T01:19:24.121Z,7.00
2019-04-28T01:21:57.850Z,7.00
2019-04-28T01:24:27.294Z,6.90
2019-04-28T01:26:56.755Z,6.90
2019-04-28T01:29:26.195Z,6.90
2019-04-28T01:32:13.234Z,6.90
2019-04-28T01:34:42.616Z,6.90
2019-04-28T01:37:11.998Z,6.80
2019-04-28T01:39:41.360Z,6.80
2019-04-28T01:42:10.752Z,6.80
2019-04-28T01:44:40.167Z,6.70
2019-04-28T01:47:10.602Z,6.60
2019-04-28T01:49:40.608Z,6.60
2019-04-28T01:52:10.482Z,6.60
2019-04-28T01:54:40.390Z,6.50
2019-04-28T01:57:10.211Z,6.50
2019-04-28T01:59:40.248Z,6.40
2019-04-28T02:02:10.287Z,6.30
2019-04-28T02:04:40.290Z,6.30
2019-04-28T02:07:12.729Z,6.30
2019-04-28T02:09:42.146Z,6.30
2019-04-28T02:12:11.566Z,6.30
2019-04-28T02:14:40.953Z,6.20
2019-04-28T02:17:10.572Z,6.20
2019-04-28T02:19:40.971Z,6.20
2019-04-28T02:22:24.153Z,6.20
2019-04-28T02:24:53.520Z,6.10
2019-04-28T02:27:22.894Z,6.10
2019-04-28T02:29:52.261Z,6.10
2019-04-28T02:32:24.398Z,6.00
2019-04-28T02:34:52.703Z,6.00
2019-04-28T02:37:22.079Z,6.00
2019-04-28T02:39:51.427Z,6.00
2019-04-28T02:42:21.072Z,5.90
2019-04-28T02:44:50.889Z,5.90
2019-04-28T02:47:21.887Z,5.80
2019-04-28T02:49:55.683Z,5.80
2019-04-28T02:52:30.910Z,5.80
2019-04-28T02:55:03.322Z,5.80
2019-04-28T02:57:32.738Z,5.80
2019-04-28T03:00:02.033Z,5.80
2019-04-28T03:02:32.078Z,5.80
2019-04-28T03:05:01.652Z,5.70
2019-04-28T03:07:31.451Z,5.70
2019-04-28T03:10:03.842Z,5.70
2019-04-28T03:12:32.052Z,5.70
2019-04-28T03:15:01.631Z,5.70
2019-04-28T03:17:31.246Z,5.70
2019-04-28T03:20:01.308Z,5.70
2019-04-28T03:22:33.607Z,5.70
2019-04-28T03:25:03.652Z,5.80
2019-04-28T03:27:40.689Z,5.80
2019-04-28T03:30:28.041Z,5.80
2019-04-28T03:33:04.947Z,5.90
2019-04-28T03:35:32.494Z,5.80
2019-04-28T03:38:01.441Z,5.80
2019-04-28T03:40:33.662Z,5.80
2019-04-28T03:43:03.202Z,5.90
2019-04-28T03:45:37.269Z,5.90
2019-04-28T03:48:06.626Z,6.00
2019-04-28T03:50:37.655Z,6.00
2019-04-28T03:53:07.071Z,5.90
2019-04-28T03:55:36.439Z,6.00
2019-04-28T03:58:05.842Z,6.00
2019-04-28T04:00:35.196Z,6.00
2019-04-28T04:03:04.579Z,5.90
2019-04-28T04:05:34.422Z,5.90
2019-04-28T04:08:03.780Z,5.90
2019-04-28T04:10:52.791Z,5.90
2019-04-28T04:13:32.740Z,5.90
2019-04-28T04:16:15.622Z,5.80
2019-04-28T04:18:46.612Z,5.80
2019-04-28T04:21:17.623Z,5.80
2019-04-28T04:23:46.997Z,5.80
2019-04-28T04:26:16.373Z,5.70
2019-04-28T04:28:45.731Z,5.60
2019-04-28T04:31:15.118Z,5.60
2019-04-28T04:33:44.466Z,5.60
2019-04-28T04:36:13.831Z,5.50
2019-04-28T04:38:46.212Z,5.50
2019-04-28T04:41:14.337Z,5.60
2019-04-28T04:43:43.723Z,5.60
2019-04-28T04:46:14.784Z,5.70
2019-04-28T04:48:44.505Z,5.70
2019-04-28T04:51:13.996Z,5.80
2019-04-28T04:53:43.516Z,5.80
2019-04-28T04:56:12.896Z,5.80
2019-04-28T04:58:42.260Z,5.80
2019-04-28T05:01:20.397Z,5.80
2019-04-28T05:03:54.244Z,5.90
2019-04-28T05:06:41.577Z,5.80
2019-04-28T05:09:11.316Z,5.90
2019-04-28T05:11:40.783Z,6.00
2019-04-28T05:14:11.979Z,6.00
2019-04-28T05:16:41.234Z,6.10
2019-04-28T05:19:10.741Z,6.20
2019-04-28T05:21:40.624Z,6.20
2019-04-28T05:24:15.965Z,6.30
2019-04-28T05:26:48.992Z,6.40
2019-04-28T05:29:21.834Z,6.50
2019-04-28T05:31:50.358Z,6.70
2019-04-28T05:34:20.506Z,6.80
2019-04-28T05:36:51.562Z,7.00
2019-04-28T05:39:20.880Z,7.20
2019-04-28T05:41:50.565Z,7.30
2019-04-28T05:44:20.366Z,7.60
2019-04-28T05:46:50.606Z,7.60
2019-04-28T05:49:30.610Z,7.60
2019-04-28T05:52:01.623Z,7.70
2019-04-28T05:54:49.653Z,7.80
2019-04-28T05:57:30.547Z,7.90
2019-04-28T06:00:16.187Z,8.10
2019-04-28T06:02:56.475Z,8.20
2019-04-28T06:05:20.086Z,8.40
2019-04-28T06:07:51.112Z,8.50
2019-04-28T06:10:20.550Z,8.60
2019-04-28T06:12:49.935Z,8.70
2019-04-28T06:15:21.962Z,8.70
2019-04-28T06:17:52.761Z,8.70
2019-04-28T06:20:22.126Z,8.70
2019-04-28T06:22:51.496Z,8.80
2019-04-28T06:25:20.884Z,8.90
2019-04-28T06:27:50.274Z,8.90
2019-04-28T06:30:19.981Z,8.90
2019-04-28T06:32:49.326Z,8.80
2019-04-28T06:35:18.779Z,8.80
2019-04-28T06:37:48.184Z,8.80
2019-04-28T06:40:19.165Z,8.70
2019-04-28T06:42:48.620Z,8.80
2019-04-28T06:45:17.992Z,8.90
2019-04-28T06:47:47.369Z,8.90
2019-04-28T06:50:18.260Z,8.90
2019-04-28T06:52:47.645Z,8.90
2019-04-28T06:55:17.034Z,8.90
2019-04-28T06:57:46.380Z,8.90
2019-04-28T07:00:15.835Z,8.90
2019-04-28T07:02:45.209Z,9.10
2019-04-28T07:05:14.673Z,9.10
2019-04-28T07:07:44.034Z,9.40
2019-04-28T07:10:13.512Z,9.60
2019-04-28T07:12:42.916Z,9.80
2019-04-28T07:15:12.449Z,9.90
2019-04-28T07:17:41.817Z,9.90
2019-04-28T07:20:27.842Z,10.10
2019-04-28T07:22:57.211Z,10.10
2019-04-28T07:25:26.675Z,10.20
2019-04-28T07:27:56.032Z,10.40
2019-04-28T07:30:25.483Z,10.40
2019-04-28T07:32:54.965Z,10.60
2019-04-28T07:35:24.432Z,10.70
2019-04-28T07:37:53.826Z,10.80
2019-04-28T07:40:23.265Z,11.00
2019-04-28T07:42:52.727Z,11.00
2019-04-28T07:45:22.114Z,10.90
2019-04-28T07:47:51.508Z,10.90
2019-04-28T07:50:20.871Z,11.00
2019-04-28T07:52:51.912Z,11.10
2019-04-28T07:55:21.274Z,11.20
2019-04-28T07:57:50.645Z,11.40
2019-04-28T08:00:27.708Z,11.60
2019-04-28T08:02:57.083Z,11.70
2019-04-28T08:05:26.561Z,11.70
2019-04-28T08:07:56.056Z,12.00
2019-04-28T08:10:25.469Z,12.20
2019-04-28T08:12:54.827Z,12.40
2019-04-28T08:15:24.213Z,12.60
2019-04-28T08:17:53.647Z,12.50
2019-04-28T08:20:23.096Z,12.60
2019-04-28T08:22:52.468Z,12.70
2019-04-28T08:25:21.859Z,12.90
2019-04-28T08:27:51.326Z,13.00
2019-04-28T08:30:20.767Z,12.90
2019-04-28T08:33:07.573Z,13.00
2019-04-28T08:35:36.956Z,13.00
2019-04-28T08:38:06.336Z,13.10
2019-04-28T08:40:35.714Z,12.90
2019-04-28T08:43:05.168Z,12.60
2019-04-28T08:45:34.536Z,12.50
2019-04-28T08:48:03.997Z,12.60
2019-04-28T08:50:33.357Z,12.60
2019-04-28T08:53:02.744Z,12.30
2019-04-28T08:55:32.058Z,12.10
2019-04-28T08:58:01.415Z,12.00
2019-04-28T09:00:30.903Z,11.50
2019-04-28T09:03:01.232Z,11.50
2019-04-28T09:05:30.640Z,11.50
2019-04-28T09:08:00.074Z,11.70
2019-04-28T09:10:29.468Z,11.90
2019-04-28T09:12:58.831Z,12.30
2019-04-28T09:15:28.214Z,12.70
2019-04-28T09:17:57.599Z,13.00
2019-04-28T09:20:26.966Z,13.40
2019-04-28T09:22:56.365Z,13.50
2019-04-28T09:25:25.734Z,13.60
2019-04-28T09:27:55.122Z,13.50
2019-04-28T09:30:24.569Z,13.60
2019-04-28T09:32:53.961Z,13.40
2019-04-28T09:35:23.331Z,13.70
2019-04-28T09:37:52.657Z,13.60
2019-04-28T09:40:22.062Z,13.10
2019-04-28T09:42:53.085Z,12.60
2019-04-28T09:45:24.153Z,12.20
2019-04-28T09:47:53.542Z,12.00
2019-04-28T09:50:22.903Z,11.80
2019-04-28T09:52:52.339Z,11.70
2019-04-28T09:55:21.749Z,11.50
2019-04-28T09:57:51.204Z,11.70
2019-04-28T10:00:20.836Z,11.90
2019-04-28T10:02:50.199Z,12.40
2019-04-28T10:05:19.592Z,12.90
2019-04-28T10:07:48.996Z,13.40
2019-04-28T10:10:18.575Z,13.80
2019-04-28T10:12:47.961Z,13.90
2019-04-28T10:15:17.531Z,14.00
2019-04-28T10:17:46.915Z,13.80
2019-04-28T10:20:16.924Z,13.50
2019-04-28T10:22:46.482Z,13.00
2019-04-28T10:25:16.100Z,12.00
2019-04-28T10:27:45.492Z,11.60
2019-04-28T10:30:15.191Z,11.20
2019-04-28T10:32:44.595Z,11.00
2019-04-28T10:35:14.390Z,10.90
2019-04-28T10:37:45.565Z,11.00
2019-04-28T10:40:22.540Z,11.20
2019-04-28T10:42:51.947Z,11.30
2019-04-28T10:45:23.036Z,11.30
2019-04-28T10:47:52.513Z,11.30
2019-04-28T10:50:22.031Z,11.40
2019-04-28T10:52:51.455Z,11.50
2019-04-28T10:55:23.349Z,11.50
2019-04-28T10:57:52.796Z,11.40
2019-04-28T11:00:23.875Z,11.50
2019-04-28T11:02:53.253Z,11.60
2019-04-28T11:05:24.293Z,11.70
2019-04-28T11:07:55.157Z,11.70
2019-04-28T11:10:24.732Z,11.70
2019-04-28T11:12:54.260Z,11.50
2019-04-28T11:15:25.339Z,11.60
2019-04-28T11:17:54.858Z,11.60
2019-04-28T11:20:30.849Z,11.80
2019-04-28T11:23:02.402Z,11.90
2019-04-28T11:25:31.955Z,12.00
2019-04-28T11:28:01.999Z,12.20
2019-04-28T11:30:31.588Z,12.40
2019-04-28T11:33:08.679Z,12.50
2019-04-28T11:35:39.782Z,12.70
2019-04-28T11:38:09.387Z,14.90
2019-04-28T11:40:40.944Z,17.30
2019-04-28T11:43:10.405Z,18.00
2019-04-28T11:45:39.854Z,17.30
2019-04-28T11:48:09.310Z,16.70
2019-04-28T11:50:38.740Z,16.20
2019-04-28T11:53:08.143Z,16.30
2019-04-28T11:55:37.520Z,16.60
2019-04-28T11:58:07.443Z,16.40
2019-04-28T12:00:37.212Z,16.10
2019-04-28T12:03:07.453Z,15.50
2019-04-28T12:05:41.195Z,14.90
2019-04-28T12:08:10.709Z,14.60
2019-04-28T12:10:57.572Z,14.70
2019-04-28T12:13:31.584Z,14.80
2019-04-28T12:16:14.022Z,14.80
2019-04-28T12:18:45.246Z,15.10
2019-04-28T12:21:14.682Z,15.90
2019-04-28T12:23:44.143Z,16.50
2019-04-28T12:26:13.703Z,16.50
2019-04-28T12:28:43.262Z,16.40
2019-04-28T12:31:14.386Z,16.40
2019-04-28T12:33:43.848Z,16.70
2019-04-28T12:36:13.489Z,18.40
2019-04-28T12:38:42.894Z,20.50
2019-04-28T12:41:12.271Z,21.70
2019-04-28T12:43:41.695Z,21.70
2019-04-28T12:46:11.009Z,21.90
2019-04-28T12:48:40.610Z,22.60
2019-04-28T12:51:10.094Z,23.40
2019-04-28T12:53:39.529Z,23.70
2019-04-28T12:56:09.107Z,24.30
2019-04-28T12:58:40.146Z,25.20
2019-04-28T13:01:13.931Z,26.00
2019-04-28T13:03:45.011Z,27.00
2019-04-28T13:06:22.123Z,27.20
2019-04-28T13:08:53.061Z,27.80
2019-04-28T13:11:22.549Z,27.90
2019-04-28T13:13:51.987Z,28.00
2019-04-28T13:16:21.374Z,27.50
2019-04-28T13:18:50.756Z,27.00
2019-04-28T13:21:20.286Z,25.90
2019-04-28T13:23:50.392Z,27.00
2019-04-28T13:26:20.901Z,27.80
2019-04-28T13:28:50.882Z,27.90
2019-04-28T13:31:20.329Z,27.60
2019-04-28T13:33:56.197Z,28.50
2019-04-28T13:36:21.385Z,28.80
2019-04-28T13:38:51.444Z,29.20
2019-04-28T13:41:24.556Z,29.00
2019-04-28T13:43:54.019Z,29.70
2019-04-28T13:46:23.451Z,29.80
2019-04-28T13:48:53.433Z,29.20
2019-04-28T13:51:23.398Z,29.40
2019-04-28T13:53:53.337Z,30.10
2019-04-28T13:56:23.441Z,30.30
2019-04-28T13:58:55.123Z,30.00
2019-04-28T14:01:37.708Z,29.60
2019-04-28T14:04:09.264Z,29.90
2019-04-28T14:06:43.676Z,30.80
2019-04-28T14:09:15.292Z,30.80
2019-04-28T14:11:45.313Z,31.00
2019-04-28T14:14:15.403Z,31.20
2019-04-28T14:16:45.551Z,31.20
2019-04-28T14:19:15.648Z,31.30
2019-04-28T14:21:45.788Z,31.80
2019-04-28T14:24:16.022Z,31.70
2019-04-28T14:26:46.156Z,31.60
2019-04-28T14:29:16.295Z,32.10
2019-04-28T14:31:47.105Z,31.80
2019-04-28T14:34:17.179Z,31.80
2019-04-28T14:36:47.241Z,30.30
2019-04-28T14:39:17.277Z,30.10
2019-04-28T14:41:47.425Z,29.60
2019-04-28T14:44:17.883Z,29.60
2019-04-28T14:46:47.880Z,30.00
2019-04-28T14:49:17.902Z,30.40
2019-04-28T14:51:47.876Z,30.00
2019-04-28T14:54:17.280Z,29.00
2019-04-28T14:56:46.662Z,27.50
2019-04-28T14:59:17.864Z,27.80
2019-04-28T15:02:05.807Z,28.50
2019-04-28T15:04:37.468Z,29.30
2019-04-28T15:07:09.043Z,30.40
2019-04-28T15:09:57.175Z,31.00
2019-04-28T15:12:27.139Z,30.80
2019-04-28T15:14:57.160Z,30.30
2019-04-28T15:17:27.121Z,30.00
2019-04-28T15:19:57.303Z,30.80
2019-04-28T15:22:27.435Z,30.50
2019-04-28T15:24:57.634Z,29.70
2019-04-28T15:27:27.632Z,29.70
2019-04-28T15:29:57.645Z,29.60
2019-04-28T15:32:27.613Z,29.20
2019-04-28T15:34:57.579Z,29.20
2019-04-28T15:37:27.511Z,29.10
2019-04-28T15:39:57.527Z,30.20
2019-04-28T15:42:27.488Z,31.10
2019-04-28T15:44:57.603Z,30.80
2019-04-28T15:47:27.087Z,29.70
2019-04-28T15:49:56.699Z,27.30
2019-04-28T15:52:26.201Z,24.20
2019-04-28T15:54:55.559Z,21.70
2019-04-28T15:57:24.941Z,19.60
2019-04-28T15:59:54.344Z,18.20
2019-04-28T16:02:23.791Z,17.30
2019-04-28T16:04:53.157Z,16.80
2019-04-28T16:07:25.012Z,17.80
2019-04-28T16:09:53.603Z,19.80
2019-04-28T16:12:22.987Z,21.70
2019-04-28T16:14:52.367Z,23.20
2019-04-28T16:17:21.765Z,24.20
2019-04-28T16:19:51.132Z,25.50
2019-04-28T16:22:20.535Z,26.20
2019-04-28T16:24:49.946Z,26.30
2019-04-28T16:27:19.314Z,26.50
2019-04-28T16:29:48.711Z,26.10
2019-04-28T16:32:18.168Z,25.20
2019-04-28T16:34:50.688Z,23.60
2019-04-28T16:37:20.092Z,24.30
2019-04-28T16:39:49.478Z,22.90
2019-04-28T16:42:19.344Z,23.80
2019-04-28T16:44:49.247Z,24.20
2019-04-28T16:47:18.676Z,25.10
2019-04-28T16:49:48.097Z,24.30
2019-04-28T16:52:17.508Z,22.90
2019-04-28T16:54:48.520Z,22.50
2019-04-28T16:57:22.248Z,22.80
2019-04-28T16:59:56.324Z,22.70
2019-04-28T17:02:27.625Z,23.10
2019-04-28T17:04:57.000Z,23.80
2019-04-28T17:07:26.425Z,24.60
2019-04-28T17:09:55.860Z,22.90
2019-04-28T17:12:25.258Z,21.70
2019-04-28T17:14:54.640Z,20.70
2019-04-28T17:17:24.020Z,20.00
2019-04-28T17:19:53.627Z,19.00
2019-04-28T17:22:23.082Z,18.10
2019-04-28T17:24:57.299Z,16.90
2019-04-28T17:27:28.443Z,15.80
2019-04-28T17:29:57.901Z,15.20
2019-04-28T17:32:27.336Z,14.70
2019-04-28T17:34:56.723Z,14.40
2019-04-28T17:37:27.896Z,14.20
2019-04-28T17:39:57.285Z,13.70
2019-04-28T17:42:26.667Z,13.50
2019-04-28T17:44:58.721Z,13.40
2019-04-28T17:47:28.899Z,13.50
2019-04-28T17:49:58.176Z,13.40
2019-04-28T17:52:27.584Z,13.40
2019-04-28T17:54:57.194Z,13.20
2019-04-28T17:57:26.614Z,13.10
2019-04-28T17:59:57.677Z,13.00
2019-04-28T18:02:44.366Z,12.90
2019-04-28T18:05:33.554Z,12.70
2019-04-28T18:08:03.977Z,12.60
2019-04-28T18:10:34.483Z,12.50
2019-04-28T18:13:04.145Z,12.40
2019-04-28T18:15:44.469Z,12.20
2019-04-28T18:18:18.589Z,12.10
2019-04-28T18:20:48.037Z,11.90
2019-04-28T18:23:17.404Z,11.80
2019-04-28T18:25:46.795Z,11.70
2019-04-28T18:28:16.214Z,11.70
2019-04-28T18:31:03.341Z,11.60
2019-04-28T18:33:34.361Z,11.50
2019-04-28T18:36:11.192Z,11.50
2019-04-28T18:38:54.010Z,11.30
2019-04-28T18:41:25.044Z,11.40
2019-04-28T18:44:02.133Z,11.30
2019-04-28T18:46:31.823Z,11.20
2019-04-28T18:49:01.277Z,11.00
2019-04-28T18:51:33.866Z,10.90
2019-04-28T18:54:03.371Z,10.80
2019-04-28T18:56:32.809Z,10.70
2019-04-28T18:59:02.238Z,10.80
2019-04-28T19:01:41.991Z,10.70
2019-04-28T19:04:11.480Z,10.70
2019-04-28T19:06:40.898Z,10.70
2019-04-28T19:09:30.092Z,10.70
2019-04-28T19:12:06.955Z,10.50
2019-04-28T19:14:41.027Z,10.40
2019-04-28T19:17:17.703Z,10.30
2019-04-28T19:19:47.178Z,10.20
2019-04-28T19:22:16.585Z,10.20
2019-04-28T19:24:46.049Z,10.10
2019-04-28T19:27:15.503Z,10.10
2019-04-28T19:29:44.976Z,10.10
2019-04-28T19:32:14.406Z,10.20
2019-04-28T19:34:45.468Z,10.20
2019-04-28T19:37:15.101Z,10.20
2019-04-28T19:39:44.507Z,10.10
2019-04-28T19:42:13.957Z,10.10
2019-04-28T19:44:43.397Z,10.00
2019-04-28T19:47:14.539Z,10.00
2019-04-28T19:49:44.012Z,10.00
2019-04-28T19:52:13.475Z,10.00
2019-04-28T19:54:44.641Z,9.90
2019-04-28T19:57:18.354Z,9.80
2019-04-28T19:59:55.259Z,9.70
2019-04-28T20:02:25.862Z,9.60
2019-04-28T20:04:57.924Z,9.60
2019-04-28T20:07:27.299Z,9.50
2019-04-28T20:09:58.316Z,9.60
2019-04-28T20:12:27.782Z,9.70
2019-04-28T20:14:57.481Z,9.80
2019-04-28T20:17:26.880Z,9.80
2019-04-28T20:19:56.519Z,9.80
2019-04-28T20:22:26.201Z,9.80
2019-04-28T20:24:55.593Z,9.80
2019-04-28T20:27:25.116Z,9.80
2019-04-28T20:29:54.574Z,9.80
2019-04-28T20:32:24.044Z,9.50
2019-04-28T20:34:53.459Z,9.50
2019-04-28T20:37:28.838Z,9.50
2019-04-28T20:39:59.851Z,9.40
2019-04-28T20:42:45.705Z,9.30
2019-04-28T20:45:16.981Z,9.30
2019-04-28T20:47:46.481Z,9.20
2019-04-28T20:50:15.925Z,9.10
2019-04-28T20:52:45.302Z,9.00
2019-04-28T20:55:14.924Z,8.80
2019-04-28T20:57:44.275Z,8.70
2019-04-28T21:00:13.824Z,8.70
2019-04-28T21:02:43.170Z,8.70
2019-04-28T21:05:12.560Z,8.60
2019-04-28T21:07:41.928Z,8.60
2019-04-28T21:10:11.445Z,8.50
2019-04-28T21:12:40.844Z,8.50
2019-04-28T21:15:10.394Z,8.50
2019-04-28T21:17:39.923Z,8.40
2019-04-28T21:20:09.481Z,8.40
2019-04-28T21:22:38.763Z,8.30
2019-04-28T21:25:08.790Z,8.20
2019-04-28T21:27:38.182Z,8.00
2019-04-28T21:30:07.768Z,7.90
2019-04-28T21:32:37.161Z,7.90
2019-04-28T21:35:09.721Z,7.90
2019-04-28T21:37:39.107Z,7.90
2019-04-28T21:40:10.484Z,8.00
2019-04-28T21:42:53.587Z,8.00
2019-04-28T21:45:40.686Z,8.00
2019-04-28T21:48:10.810Z,8.00
2019-04-28T21:50:40.204Z,8.00
2019-04-28T21:53:09.646Z,8.00
2019-04-28T21:55:39.216Z,7.90
2019-04-28T21:58:08.581Z,7.90
2019-04-28T22:00:54.651Z,7.90
2019-04-28T22:03:24.623Z,7.80
2019-04-28T22:05:54.024Z,7.80
2019-04-28T22:08:23.396Z,7.70
2019-04-28T22:10:52.884Z,7.70
2019-04-28T22:13:22.258Z,7.60
2019-04-28T22:15:51.621Z,7.60
2019-04-28T22:18:21.006Z,7.50
2019-04-28T22:20:50.358Z,7.50
2019-04-28T22:23:27.372Z,7.60
2019-04-28T22:25:56.731Z,7.60
2019-04-28T22:28:26.120Z,7.60
2019-04-28T22:30:55.498Z,7.60
2019-04-28T22:33:24.922Z,7.60
2019-04-28T22:35:54.358Z,7.50
2019-04-28T22:38:23.845Z,7.50
2019-04-28T22:40:53.207Z,7.60
2019-04-28T22:43:22.619Z,7.60
2019-04-28T22:45:52.009Z,7.60
2019-04-28T22:48:23.096Z,7.50
2019-04-28T22:50:54.180Z,7.50
2019-04-28T22:53:25.206Z,7.60
2019-04-28T22:56:04.871Z,7.60
2019-04-28T22:58:45.002Z,7.50
2019-04-28T23:01:16.072Z,7.40
2019-04-28T23:03:47.108Z,7.30
2019-04-28T23:09:01.481Z,7.20
2019-04-28T23:11:42.838Z,7.10
2019-04-28T23:14:24.180Z,7.10
2019-04-28T23:17:06.886Z,7.10
2019-04-28T23:19:48.535Z,7.10
2019-04-28T23:25:38.085Z,7.00
2019-04-28T23:28:19.307Z,7.00
2019-04-28T23:31:00.478Z,7.00
2019-04-28T23:33:42.402Z,7.00
2019-04-28T23:36:23.753Z,7.00
2019-04-28T23:39:05.884Z,6.90
2019-04-28T23:41:51.728Z,6.90
2019-04-28T23:44:33.483Z,6.90
2019-04-28T23:47:15.522Z,6.90
2019-04-28T23:49:57.681Z,6.80
2019-04-28T23:52:41.349Z,6.70
2019-04-28T23:55:22.981Z,6.70
2019-04-28T23:58:04.247Z,6.70
